createdAt,value
2022-11-02T00:01:27.279Z,1.13
2022-11-02T00:03:55.764Z,1.20
2022-11-02T00:06:23.948Z,1.00
2022-11-02T00:08:53.569Z,1.23
2022-11-02T00:11:21.758Z,1.13
2022-11-02T00:13:50.050Z,1.00
2022-11-02T00:16:20.839Z,1.30
2022-11-02T00:18:52.560Z,1.40
2022-11-02T00:21:22.709Z,1.37
2022-11-02T00:23:51.291Z,1.27
2022-11-02T00:26:21.242Z,1.20
2022-11-02T00:28:49.660Z,0.90
2022-11-02T00:31:18.084Z,1.27
2022-11-02T00:33:46.296Z,1.03
2022-11-02T00:36:14.704Z,1.40
2022-11-02T00:38:42.925Z,1.50
2022-11-02T00:41:12.909Z,1.10
2022-11-02T00:43:42.700Z,1.43
2022-11-02T00:46:10.917Z,1.30
2022-11-02T00:48:39.350Z,1.10
2022-11-02T00:51:07.848Z,1.43
2022-11-02T00:53:36.405Z,0.90
2022-11-02T00:56:04.997Z,1.00
2022-11-02T00:58:34.113Z,1.03
2022-11-02T01:01:07.304Z,1.20
2022-11-02T01:03:36.921Z,1.10
2022-11-02T01:06:10.191Z,1.13
2022-11-02T01:08:39.157Z,1.67
2022-11-02T01:11:12.359Z,1.10
2022-11-02T01:13:40.666Z,1.00
2022-11-02T01:16:11.421Z,0.90
2022-11-02T01:18:40.270Z,1.00
2022-11-02T01:21:10.117Z,1.10
2022-11-02T01:23:39.629Z,1.10
2022-11-02T01:26:10.069Z,0.90
2022-11-02T01:28:39.359Z,1.10
2022-11-02T01:31:08.016Z,1.13
2022-11-02T01:33:38.590Z,1.33
2022-11-02T01:36:08.350Z,1.40
2022-11-02T01:38:36.646Z,1.20
2022-11-02T01:41:04.916Z,0.97
2022-11-02T01:43:35.423Z,1.13
2022-11-02T01:46:08.327Z,1.30
2022-11-02T01:48:45.426Z,1.10
2022-11-02T01:51:20.582Z,2.17
2022-11-02T01:53:52.348Z,1.30
2022-11-02T01:59:01.752Z,1.10
2022-11-02T02:01:31.246Z,1.33
2022-11-02T02:04:02.680Z,1.00
2022-11-02T02:06:35.762Z,1.20
2022-11-02T02:09:08.673Z,1.00
2022-11-02T02:11:39.005Z,1.10
2022-11-02T02:14:10.232Z,1.00
2022-11-02T02:16:58.614Z,1.10
2022-11-02T02:19:39.840Z,1.00
2022-11-02T02:22:21.589Z,0.90
2022-11-02T02:24:55.510Z,0.90
2022-11-02T02:27:30.882Z,1.00
2022-11-02T02:30:10.433Z,0.97
2022-11-02T02:32:46.382Z,0.93
2022-11-02T02:35:27.024Z,1.27
2022-11-02T02:37:59.839Z,0.80
2022-11-02T02:40:34.816Z,1.00
2022-11-02T02:43:09.542Z,0.80
2022-11-02T02:45:45.375Z,1.07
2022-11-02T02:48:19.538Z,1.27
2022-11-02T02:50:50.705Z,1.00
2022-11-02T02:53:26.289Z,0.80
2022-11-02T02:55:55.171Z,0.73
2022-11-02T02:58:28.028Z,0.90
2022-11-02T03:00:58.941Z,0.90
2022-11-02T03:03:31.253Z,0.83
2022-11-02T03:06:09.169Z,0.77
2022-11-02T03:08:42.210Z,0.70
2022-11-02T03:11:15.194Z,0.83
2022-11-02T03:14:07.929Z,1.10
2022-11-02T03:17:05.383Z,0.90
2022-11-02T03:19:43.995Z,0.90
2022-11-02T03:22:22.826Z,1.00
2022-11-02T03:25:00.400Z,0.90
2022-11-02T03:27:38.660Z,0.60
2022-11-02T03:30:11.329Z,0.93
2022-11-02T03:32:49.941Z,0.90
2022-11-02T03:35:22.757Z,1.40
2022-11-02T03:37:57.569Z,0.97
2022-11-02T03:40:30.645Z,1.00
2022-11-02T03:43:01.951Z,1.80
2022-11-02T03:45:37.075Z,0.90
2022-11-02T03:48:10.081Z,0.80
2022-11-02T03:50:43.316Z,0.70
2022-11-02T03:53:16.482Z,0.80
2022-11-02T03:55:52.165Z,0.90
2022-11-02T03:58:21.128Z,0.73
2022-11-02T04:00:53.056Z,0.60
2022-11-02T04:03:25.524Z,0.57
2022-11-02T04:05:55.454Z,0.60
2022-11-02T04:08:35.516Z,0.70
2022-11-02T04:11:25.168Z,0.60
2022-11-02T04:14:13.171Z,0.60
2022-11-02T04:16:43.750Z,0.73
2022-11-02T04:19:30.001Z,0.60
2022-11-02T04:22:22.052Z,0.70
2022-11-02T04:25:12.619Z,0.83
2022-11-02T04:27:42.562Z,0.70
2022-11-02T04:30:12.887Z,0.60
2022-11-02T04:32:59.551Z,0.93
2022-11-02T04:35:32.939Z,0.70
2022-11-02T04:38:19.141Z,0.70
2022-11-02T04:40:47.469Z,1.23
2022-11-02T04:43:15.860Z,0.70
2022-11-02T04:45:44.440Z,0.63
2022-11-02T04:48:12.955Z,0.70
2022-11-02T04:50:42.696Z,0.70
2022-11-02T04:53:10.948Z,0.50
2022-11-02T04:55:41.019Z,0.90
2022-11-02T04:58:09.270Z,0.73
2022-11-02T05:00:38.181Z,0.67
2022-11-02T05:03:12.326Z,0.90
2022-11-02T05:05:43.716Z,0.60
2022-11-02T05:08:12.550Z,0.50
2022-11-02T05:10:40.837Z,0.60
2022-11-02T05:13:11.789Z,0.53
2022-11-02T05:15:40.379Z,0.67
2022-11-02T05:18:11.631Z,0.90
2022-11-02T05:20:43.580Z,0.50
2022-11-02T05:23:11.911Z,0.63
2022-11-02T05:25:40.293Z,0.53
2022-11-02T05:28:08.821Z,0.60
2022-11-02T05:30:37.258Z,0.57
2022-11-02T05:33:05.849Z,0.63
2022-11-02T05:35:34.393Z,0.50
2022-11-02T05:38:04.165Z,0.57
2022-11-02T05:40:33.859Z,0.60
2022-11-02T05:43:03.198Z,0.70
2022-11-02T05:45:32.231Z,0.77
2022-11-02T05:48:02.437Z,0.50
2022-11-02T05:50:30.813Z,0.40
2022-11-02T05:53:01.024Z,0.70
2022-11-02T05:55:30.784Z,0.60
2022-11-02T05:57:59.005Z,0.60
2022-11-02T06:00:27.248Z,0.90
2022-11-02T06:02:58.975Z,0.67
2022-11-02T06:05:28.295Z,0.97
2022-11-02T06:07:59.829Z,0.67
2022-11-02T06:10:28.736Z,0.90
2022-11-02T06:12:59.707Z,0.57
2022-11-02T06:15:28.732Z,0.50
2022-11-02T06:17:56.971Z,0.60
2022-11-02T06:20:25.460Z,0.80
2022-11-02T06:22:53.727Z,0.90
2022-11-02T06:25:22.070Z,0.60
2022-11-02T06:27:55.237Z,0.73
2022-11-02T06:30:27.444Z,0.50
2022-11-02T06:32:55.867Z,0.70
2022-11-02T06:35:24.480Z,0.60
2022-11-02T06:37:52.823Z,0.60
2022-11-02T06:40:22.781Z,0.70
2022-11-02T06:43:15.301Z,0.70
2022-11-02T06:45:46.852Z,0.80
2022-11-02T06:48:15.301Z,0.80
2022-11-02T06:50:43.642Z,0.70
2022-11-02T06:53:11.944Z,0.70
2022-11-02T06:55:40.413Z,1.40
2022-11-02T06:58:08.710Z,0.87
2022-11-02T07:00:37.041Z,0.70
2022-11-02T07:03:08.769Z,0.60
2022-11-02T07:05:37.773Z,0.77
2022-11-02T07:08:06.261Z,0.60
2022-11-02T07:10:36.181Z,1.10
2022-11-02T07:13:04.646Z,0.50
2022-11-02T07:15:33.048Z,0.60
2022-11-02T07:18:01.291Z,1.00
2022-11-02T07:20:31.550Z,0.60
2022-11-02T07:23:01.947Z,0.70
2022-11-02T07:25:32.273Z,0.70
2022-11-02T07:28:01.264Z,0.83
2022-11-02T07:30:30.540Z,0.83
2022-11-02T07:32:59.105Z,0.80
2022-11-02T07:35:27.783Z,0.57
2022-11-02T07:37:58.622Z,0.70
2022-11-02T07:40:28.385Z,0.70
2022-11-02T07:42:56.884Z,0.57
2022-11-02T07:45:50.908Z,0.70
2022-11-02T07:48:23.132Z,0.60
2022-11-02T07:50:51.339Z,0.60
2022-11-02T07:53:22.040Z,0.50
2022-11-02T07:55:50.285Z,0.50
2022-11-02T07:58:18.661Z,0.70
2022-11-02T08:00:47.044Z,0.50
2022-11-02T08:03:15.852Z,0.70
2022-11-02T08:05:44.432Z,0.60
2022-11-02T08:08:15.256Z,0.70
2022-11-02T08:10:46.712Z,0.63
2022-11-02T08:13:17.588Z,0.60
2022-11-02T08:15:46.313Z,0.70
2022-11-02T08:18:16.912Z,0.83
2022-11-02T08:20:46.016Z,0.90
2022-11-02T08:23:15.690Z,0.50
2022-11-02T08:25:46.411Z,0.60
2022-11-02T08:28:17.085Z,0.40
2022-11-02T08:30:45.343Z,0.70
2022-11-02T08:33:16.282Z,0.60
2022-11-02T08:35:46.080Z,0.43
2022-11-02T08:38:14.847Z,0.53
2022-11-02T08:40:43.373Z,0.70
2022-11-02T08:43:15.224Z,0.40
2022-11-02T08:48:33.961Z,0.80
2022-11-02T08:51:02.864Z,0.50
2022-11-02T08:53:31.384Z,0.80
2022-11-02T08:55:59.632Z,0.70
2022-11-02T08:58:29.446Z,0.70
2022-11-02T09:00:58.085Z,0.60
2022-11-02T09:03:27.445Z,0.60
2022-11-02T09:05:59.913Z,0.60
2022-11-02T09:08:29.189Z,0.70
2022-11-02T09:11:01.117Z,0.50
2022-11-02T09:13:31.216Z,0.50
2022-11-02T09:16:01.238Z,0.40
2022-11-02T09:18:29.903Z,0.57
2022-11-02T09:20:58.395Z,0.50
2022-11-02T09:23:27.657Z,0.80
2022-11-02T09:25:55.886Z,0.60
2022-11-02T09:28:24.255Z,0.50
2022-11-02T09:30:53.980Z,0.60
2022-11-02T09:33:22.412Z,0.50
2022-11-02T09:35:51.220Z,0.60
2022-11-02T09:38:19.687Z,0.50
2022-11-02T09:40:54.796Z,0.40
2022-11-02T09:43:37.845Z,0.40
2022-11-02T09:46:11.043Z,0.30
2022-11-02T09:48:43.152Z,0.60
2022-11-02T09:51:14.868Z,1.20
2022-11-02T09:53:54.368Z,0.43
2022-11-02T09:56:22.700Z,0.70
2022-11-02T09:58:58.950Z,0.90
2022-11-02T10:01:41.024Z,0.70
2022-11-02T10:04:34.067Z,0.60
2022-11-02T10:07:10.548Z,0.47
2022-11-02T10:09:50.814Z,0.63
2022-11-02T10:12:27.036Z,1.03
2022-11-02T10:15:03.513Z,0.50
2022-11-02T10:17:37.668Z,0.90
2022-11-02T10:20:17.942Z,0.73
2022-11-02T10:22:48.604Z,0.50
2022-11-02T10:25:18.216Z,0.53
2022-11-02T10:27:51.456Z,0.50
2022-11-02T10:30:21.252Z,0.30
2022-11-02T10:32:54.015Z,0.43
2022-11-02T10:35:41.199Z,0.30
2022-11-02T10:38:31.317Z,0.60
2022-11-02T10:41:16.334Z,0.30
2022-11-02T10:44:04.556Z,0.37
2022-11-02T10:46:50.354Z,0.50
2022-11-02T10:49:42.887Z,0.50
2022-11-02T10:52:15.212Z,0.50
2022-11-02T10:54:43.651Z,0.40
2022-11-02T10:57:14.429Z,0.40
2022-11-02T10:59:43.002Z,0.40
2022-11-02T11:02:14.852Z,0.50
2022-11-02T11:04:44.889Z,0.63
2022-11-02T11:07:17.955Z,0.40
2022-11-02T11:09:53.024Z,0.57
2022-11-02T11:12:25.799Z,0.40
2022-11-02T11:20:39.595Z,0.57
2022-11-02T11:23:20.516Z,0.50
2022-11-02T11:25:58.952Z,0.53
2022-11-02T11:28:31.032Z,0.47
2022-11-02T11:31:09.966Z,0.50
2022-11-02T11:33:48.236Z,0.40
2022-11-02T11:36:31.647Z,0.60
2022-11-02T11:39:01.717Z,0.60
2022-11-02T11:41:31.205Z,0.50
2022-11-02T11:43:59.931Z,0.77
2022-11-02T11:46:41.425Z,0.57
2022-11-02T11:49:27.495Z,0.40
2022-11-02T11:52:05.989Z,0.50
2022-11-02T11:54:35.133Z,0.40
2022-11-02T11:57:24.992Z,0.40
2022-11-02T11:59:55.516Z,0.37
2022-11-02T12:02:25.654Z,0.50
2022-11-02T12:05:01.438Z,0.50
2022-11-02T12:08:08.297Z,0.67
2022-11-02T12:10:56.714Z,0.60
2022-11-02T12:13:53.183Z,0.43
2022-11-02T12:16:31.185Z,0.50
2022-11-02T12:19:14.784Z,0.50
2022-11-02T12:21:55.330Z,0.47
2022-11-02T12:24:50.457Z,0.60
2022-11-02T12:27:33.875Z,0.50
2022-11-02T12:30:12.679Z,0.57
2022-11-02T12:32:59.044Z,0.50
2022-11-02T12:35:47.492Z,0.50
2022-11-02T12:38:35.533Z,0.50
2022-11-02T12:41:06.153Z,0.50
2022-11-02T12:43:44.022Z,0.40
2022-11-02T12:46:26.429Z,0.30
2022-11-02T12:49:20.906Z,0.40
2022-11-02T12:51:59.188Z,0.50
2022-11-02T12:54:39.081Z,0.30
2022-11-02T12:57:14.422Z,0.30
2022-11-02T12:59:45.937Z,0.43
2022-11-02T13:02:19.830Z,0.60
2022-11-02T13:04:52.730Z,0.40
2022-11-02T13:07:27.877Z,0.50
2022-11-02T13:10:02.205Z,0.47
2022-11-02T13:12:36.609Z,0.70
2022-11-02T13:15:11.931Z,0.33
2022-11-02T13:17:44.992Z,0.40
2022-11-02T13:20:18.566Z,0.30
2022-11-02T13:22:50.342Z,0.40
2022-11-02T13:25:22.438Z,0.33
2022-11-02T13:27:55.189Z,0.30
2022-11-02T13:30:25.975Z,0.30
2022-11-02T13:32:59.959Z,0.30
2022-11-02T13:35:32.349Z,0.30
2022-11-02T13:38:06.534Z,0.40
2022-11-02T13:40:39.981Z,0.37
2022-11-02T13:43:38.196Z,0.30
2022-11-02T13:46:20.787Z,0.40
2022-11-02T13:49:00.742Z,0.30
2022-11-02T13:51:37.936Z,0.40
2022-11-02T13:54:14.189Z,0.33
2022-11-02T13:56:43.934Z,0.37
2022-11-02T13:59:22.490Z,0.50
2022-11-02T14:01:54.343Z,0.30
2022-11-02T14:04:23.724Z,0.30
2022-11-02T14:06:56.624Z,0.27
2022-11-02T14:09:30.312Z,0.57
2022-11-02T14:12:41.412Z,0.40
2022-11-02T14:15:38.677Z,0.30
2022-11-02T14:18:17.009Z,0.40
2022-11-02T14:20:47.771Z,0.37
2022-11-02T14:23:36.414Z,0.30
2022-11-02T14:26:04.882Z,0.40
2022-11-02T14:28:35.363Z,0.40
2022-11-02T14:31:32.599Z,0.40
2022-11-02T14:34:22.349Z,0.30
2022-11-02T14:37:05.527Z,0.43
2022-11-02T14:39:46.620Z,0.50
2022-11-02T14:42:30.772Z,0.50
2022-11-02T14:45:13.532Z,0.40
2022-11-02T14:47:42.967Z,0.33
2022-11-02T14:50:19.342Z,0.43
2022-11-02T14:53:03.426Z,0.30
2022-11-02T14:55:34.882Z,0.27
2022-11-02T14:58:10.918Z,0.40
2022-11-02T15:00:56.018Z,0.40
2022-11-02T15:03:33.963Z,0.40
2022-11-02T15:06:06.479Z,0.40
2022-11-02T15:08:37.207Z,0.50
2022-11-02T15:11:48.279Z,0.37
2022-11-02T15:14:55.805Z,0.47
2022-11-02T15:17:52.603Z,0.47
2022-11-02T15:20:32.242Z,0.40
2022-11-02T15:23:24.077Z,0.40
2022-11-02T15:26:00.000Z,0.50
2022-11-02T15:28:33.654Z,0.47
2022-11-02T15:31:07.769Z,0.40
2022-11-02T15:33:39.705Z,0.57
2022-11-02T15:36:14.390Z,0.60
2022-11-02T15:38:49.685Z,0.50
2022-11-02T15:41:26.933Z,0.83
2022-11-02T15:44:27.476Z,0.57
2022-11-02T15:47:05.484Z,0.63
2022-11-02T15:49:56.956Z,0.53
2022-11-02T15:53:16.413Z,0.60
2022-11-02T15:55:52.121Z,0.67
2022-11-02T15:58:30.779Z,0.70
2022-11-02T16:01:15.156Z,0.60
2022-11-02T16:03:46.722Z,0.93
2022-11-02T16:06:15.326Z,0.67
2022-11-02T16:08:44.211Z,0.60
2022-11-02T16:11:17.564Z,0.40
2022-11-02T16:14:08.123Z,0.80
2022-11-02T16:16:36.148Z,0.70
2022-11-02T16:19:04.658Z,0.60
2022-11-02T16:21:33.477Z,0.80
2022-11-02T16:24:02.296Z,1.23
2022-11-02T16:26:31.986Z,0.80
2022-11-02T16:29:01.558Z,0.70
2022-11-02T16:31:32.181Z,0.82
2022-11-02T16:34:02.354Z,0.70
2022-11-02T16:36:32.667Z,0.70
2022-11-02T16:39:03.682Z,0.80
2022-11-02T16:41:35.135Z,0.57
2022-11-02T16:44:10.020Z,0.67
2022-11-02T16:46:43.577Z,0.80
2022-11-02T16:49:18.577Z,0.57
2022-11-02T16:51:52.624Z,0.90
2022-11-02T16:54:41.461Z,0.60
2022-11-02T16:57:17.948Z,0.80
2022-11-02T16:59:52.831Z,1.00
2022-11-02T17:02:35.055Z,1.07
2022-11-02T17:05:06.620Z,0.83
2022-11-02T17:07:41.661Z,0.80
2022-11-02T17:10:23.985Z,0.77
2022-11-02T17:13:00.877Z,0.73
2022-11-02T17:15:33.280Z,1.57
2022-11-02T17:18:28.651Z,1.20
2022-11-02T17:21:17.076Z,0.90
2022-11-02T17:23:47.265Z,1.23
2022-11-02T17:26:36.214Z,0.83
2022-11-02T17:29:32.268Z,1.00
2022-11-02T17:32:01.975Z,0.97
2022-11-02T17:34:31.710Z,0.70
2022-11-02T17:37:00.892Z,0.90
2022-11-02T17:39:29.450Z,0.80
2022-11-02T17:42:16.721Z,0.63
2022-11-02T17:44:46.725Z,1.17
2022-11-02T17:47:19.817Z,1.00
2022-11-02T17:49:48.193Z,1.10
2022-11-02T17:52:19.302Z,0.87
2022-11-02T17:54:47.925Z,0.97
2022-11-02T17:57:17.283Z,1.20
2022-11-02T17:59:47.199Z,1.30
2022-11-02T18:02:17.102Z,0.77
2022-11-02T18:04:45.667Z,0.80
2022-11-02T18:07:13.951Z,0.87
2022-11-02T18:09:42.263Z,0.67
2022-11-02T18:12:14.706Z,1.00
2022-11-02T18:14:43.488Z,0.80
2022-11-02T18:17:13.900Z,0.90
2022-11-02T18:19:42.169Z,1.50
2022-11-02T18:22:11.762Z,1.00
2022-11-02T18:24:40.216Z,0.90
2022-11-02T18:27:08.650Z,1.07
2022-11-02T18:29:37.922Z,1.10
2022-11-02T18:32:06.571Z,0.93
2022-11-02T18:34:36.987Z,1.40
2022-11-02T18:37:05.253Z,1.23
2022-11-02T18:39:35.618Z,1.00
2022-11-02T18:42:06.301Z,1.10
2022-11-02T18:44:34.748Z,1.00
2022-11-02T18:47:03.183Z,0.93
2022-11-02T18:49:31.496Z,1.73
2022-11-02T18:52:01.343Z,1.07
2022-11-02T18:54:29.661Z,1.10
2022-11-02T18:56:57.845Z,0.80
2022-11-02T18:59:26.294Z,0.87
2022-11-02T19:01:55.218Z,0.90
2022-11-02T19:04:23.698Z,0.90
2022-11-02T19:07:13.788Z,1.03
2022-11-02T19:09:46.544Z,0.93
2022-11-02T19:12:17.870Z,1.00
2022-11-02T19:14:49.634Z,1.10
2022-11-02T19:17:19.296Z,0.83
2022-11-02T19:19:48.589Z,1.10
2022-11-02T19:22:18.341Z,1.20
2022-11-02T19:24:48.296Z,1.07
2022-11-02T19:27:18.447Z,1.03
2022-11-02T19:29:48.044Z,0.70
2022-11-02T19:32:16.484Z,0.90
2022-11-02T19:34:44.746Z,0.90
2022-11-02T19:37:13.473Z,0.90
2022-11-02T19:39:41.789Z,1.10
2022-11-02T19:42:11.704Z,1.00
2022-11-02T19:44:42.779Z,1.07
2022-11-02T19:47:11.613Z,1.00
2022-11-02T19:49:39.839Z,1.20
2022-11-02T19:52:08.189Z,1.10
2022-11-02T19:54:36.446Z,1.20
2022-11-02T19:57:04.961Z,1.60
2022-11-02T19:59:48.796Z,1.07
2022-11-02T20:02:18.767Z,1.67
2022-11-02T20:04:47.797Z,1.30
2022-11-02T20:07:16.698Z,3.40
2022-11-02T20:09:45.882Z,1.53
2022-11-02T20:12:19.605Z,1.20
2022-11-02T20:14:50.224Z,1.10
2022-11-02T20:17:31.247Z,1.60
2022-11-02T20:20:06.740Z,1.93
2022-11-02T20:22:42.019Z,1.80
2022-11-02T20:25:17.098Z,1.00
2022-11-02T20:27:50.641Z,1.10
2022-11-02T20:30:22.436Z,1.27
2022-11-02T20:32:56.207Z,1.63
2022-11-02T20:35:26.710Z,2.00
2022-11-02T20:37:56.616Z,1.93
2022-11-02T20:40:25.866Z,1.60
2022-11-02T20:42:54.123Z,1.20
2022-11-02T20:45:24.806Z,1.40
2022-11-02T20:47:54.434Z,1.40
2022-11-02T20:50:28.928Z,1.63
2022-11-02T20:52:58.801Z,1.37
2022-11-02T20:55:28.156Z,1.40
2022-11-02T20:57:56.775Z,1.10
2022-11-02T21:00:26.802Z,1.07
2022-11-02T21:02:59.148Z,1.33
2022-11-02T21:05:28.929Z,1.30
2022-11-02T21:07:57.536Z,1.10
2022-11-02T21:10:25.819Z,1.60
2022-11-02T21:13:11.171Z,1.00
2022-11-02T21:15:41.084Z,1.10
2022-11-02T21:18:12.609Z,1.07
2022-11-02T21:20:41.785Z,1.67
2022-11-02T21:23:14.115Z,1.10
2022-11-02T21:25:42.396Z,0.93
2022-11-02T21:28:11.027Z,1.20
2022-11-02T21:30:44.053Z,0.80
2022-11-02T21:33:12.324Z,1.20
2022-11-02T21:35:40.656Z,1.10
2022-11-02T21:38:11.718Z,1.07
2022-11-02T21:40:42.127Z,1.43
2022-11-02T21:43:10.363Z,0.90
2022-11-02T21:46:07.023Z,0.87
2022-11-02T21:49:05.387Z,1.03
2022-11-02T21:51:42.008Z,1.10
2022-11-02T21:54:18.626Z,1.20
2022-11-02T21:56:53.680Z,1.10
2022-11-02T21:59:22.106Z,1.00
2022-11-02T22:01:58.159Z,1.27
2022-11-02T22:04:29.047Z,1.07
2022-11-02T22:06:57.727Z,1.60
2022-11-02T22:09:27.170Z,1.10
2022-11-02T22:12:10.310Z,1.33
2022-11-02T22:14:39.524Z,1.30
2022-11-02T22:17:21.844Z,1.47
2022-11-02T22:19:51.968Z,1.10
2022-11-02T22:22:20.252Z,1.13
2022-11-02T22:24:49.270Z,1.47
2022-11-02T22:27:17.615Z,1.53
2022-11-02T22:29:45.897Z,1.40
2022-11-02T22:32:15.788Z,1.33
2022-11-02T22:34:44.107Z,1.60
2022-11-02T22:37:30.657Z,1.30
2022-11-02T22:39:58.951Z,1.17
2022-11-02T22:42:28.204Z,1.30
2022-11-02T22:44:58.603Z,1.77
2022-11-02T22:47:28.360Z,1.20
2022-11-02T22:49:58.899Z,1.57
2022-11-02T22:52:27.434Z,1.00
2022-11-02T22:54:59.872Z,1.10
2022-11-02T22:57:28.408Z,1.13
2022-11-02T23:00:00.140Z,0.83
2022-11-02T23:02:35.649Z,0.80
2022-11-02T23:05:04.005Z,1.00
2022-11-02T23:07:32.468Z,0.83
2022-11-02T23:10:20.887Z,1.60
2022-11-02T23:12:48.153Z,0.80
2022-11-02T23:15:16.705Z,0.83
2022-11-02T23:17:46.439Z,1.10
2022-11-02T23:20:13.993Z,1.10
2022-11-02T23:22:59.498Z,1.20
2022-11-02T23:25:27.813Z,1.30
2022-11-02T23:28:14.815Z,1.10
2022-11-02T23:30:57.700Z,1.27
2022-11-02T23:33:30.933Z,1.40
2022-11-02T23:36:13.083Z,1.10
2022-11-02T23:39:00.114Z,0.90
2022-11-02T23:41:29.592Z,1.40
2022-11-02T23:44:11.942Z,1.10
2022-11-02T23:46:41.600Z,1.17
2022-11-02T23:49:11.516Z,1.20
2022-11-02T23:51:57.124Z,1.00
2022-11-02T23:54:43.069Z,0.90
2022-11-02T23:57:11.672Z,0.90
2022-11-02T23:59:40.521Z,1.20
